createdAt,value
2022-11-18T00:00:39.687Z,54.4
2022-11-18T00:01:41.548Z,54.1
2022-11-18T00:02:43.548Z,53.7
2022-11-18T00:03:44.512Z,53.5
2022-11-18T00:04:46.070Z,53.5
2022-11-18T00:05:47.777Z,53.6
2022-11-18T00:06:49.686Z,53.7
2022-11-18T00:07:51.666Z,54
2022-11-18T00:08:54.086Z,54
2022-11-18T00:09:56.528Z,53.9
2022-11-18T00:10:58.487Z,53.6
2022-11-18T00:11:59.613Z,54.1
2022-11-18T00:13:01.608Z,54.1
2022-11-18T00:14:03.806Z,53.8
2022-11-18T00:15:06.065Z,53.6
2022-11-18T00:16:07.773Z,53.6
2022-11-18T00:17:09.858Z,53.5
2022-11-18T00:18:12.573Z,53.2
2022-11-18T00:19:15.194Z,53.1
2022-11-18T00:20:16.567Z,53.1
2022-11-18T00:21:18.745Z,53.3
2022-11-18T00:22:23.282Z,53.4
2022-11-18T00:23:22.536Z,53.5
2022-11-18T00:24:23.729Z,53.3
2022-11-18T00:25:25.510Z,52.9
2022-11-18T00:26:26.573Z,53.3
2022-11-18T00:27:28.545Z,53.2
2022-11-18T00:28:29.606Z,53.2
2022-11-18T00:29:31.546Z,53.1
2022-11-18T00:30:32.847Z,52.6
2022-11-18T00:31:34.705Z,52.8
2022-11-18T00:32:37.706Z,52.8
2022-11-18T00:33:39.681Z,52.7
2022-11-18T00:34:41.716Z,52.8
2022-11-18T00:35:43.529Z,53.2
2022-11-18T00:36:44.594Z,52.6
2022-11-18T00:37:45.773Z,53.1
2022-11-18T00:38:47.746Z,53.3
2022-11-18T00:39:49.706Z,53
2022-11-18T00:40:51.695Z,52.8
2022-11-18T00:41:54.591Z,52.5
2022-11-18T00:42:56.986Z,52.3
2022-11-18T00:43:59.194Z,52.2
2022-11-18T00:45:00.697Z,51.9
2022-11-18T00:46:02.713Z,51.6
2022-11-18T00:47:04.605Z,51.6
2022-11-18T00:48:06.717Z,51.5
2022-11-18T00:49:08.705Z,51.5
2022-11-18T00:50:11.273Z,51.5
2022-11-18T00:51:12.744Z,52
2022-11-18T00:52:15.035Z,52.7
2022-11-18T00:53:16.645Z,53.1
2022-11-18T00:54:18.706Z,53.5
2022-11-18T00:55:20.739Z,53.8
2022-11-18T00:56:22.666Z,53.9
2022-11-18T00:57:24.465Z,53.9
2022-11-18T00:58:25.512Z,53.6
2022-11-18T00:59:26.505Z,53.6
2022-11-18T01:00:27.546Z,53.5
2022-11-18T01:01:29.021Z,53.4
2022-11-18T01:02:30.553Z,52.8
2022-11-18T01:03:32.100Z,52.7
2022-11-18T01:04:33.569Z,52.8
2022-11-18T01:05:34.707Z,53.1
2022-11-18T01:06:36.490Z,53.1
2022-11-18T01:07:37.671Z,53
2022-11-18T01:08:40.066Z,53.2
2022-11-18T01:09:41.546Z,53.2
2022-11-18T01:10:43.101Z,53.2
2022-11-18T01:11:44.646Z,53.1
2022-11-18T01:12:50.197Z,52.7
2022-11-18T01:13:47.685Z,52.3
2022-11-18T01:14:49.872Z,52.2
2022-11-18T01:15:51.646Z,52.2
2022-11-18T01:16:55.006Z,52.1
2022-11-18T01:17:56.705Z,52.1
2022-11-18T01:18:58.525Z,52.2
2022-11-18T01:19:59.527Z,52.2
2022-11-18T01:21:00.554Z,51.6
2022-11-18T01:22:02.055Z,52.1
2022-11-18T01:23:04.276Z,52.1
2022-11-18T01:24:05.517Z,52.1
2022-11-18T01:25:06.634Z,52
2022-11-18T01:26:09.072Z,52.2
2022-11-18T01:27:11.966Z,52.5
2022-11-18T01:28:15.509Z,52.6
2022-11-18T01:29:15.835Z,52.7
2022-11-18T01:30:16.545Z,52.7
2022-11-18T01:31:18.187Z,52.7
2022-11-18T01:32:24.774Z,52.7
2022-11-18T01:33:21.735Z,52.6
2022-11-18T01:34:23.847Z,52.8
2022-11-18T01:35:25.775Z,52.9
2022-11-18T01:36:27.816Z,53
2022-11-18T01:37:30.046Z,53.6
2022-11-18T01:38:31.666Z,54.1
2022-11-18T01:39:33.866Z,54.2
2022-11-18T01:40:35.605Z,54.3
2022-11-18T01:41:38.808Z,54.1
2022-11-18T01:42:41.009Z,53.9
2022-11-18T01:43:43.045Z,53.7
2022-11-18T01:44:45.585Z,53.2
2022-11-18T01:45:47.707Z,53.3
2022-11-18T01:46:49.766Z,53.7
2022-11-18T01:47:51.665Z,53.8
2022-11-18T01:48:53.728Z,53.6
2022-11-18T01:49:55.513Z,53.4
2022-11-18T01:50:57.125Z,53.3
2022-11-18T01:51:58.768Z,53
2022-11-18T01:53:00.641Z,52.8
2022-11-18T01:54:02.953Z,52.5
2022-11-18T01:55:04.685Z,52.5
2022-11-18T01:56:06.847Z,52.6
2022-11-18T01:57:09.073Z,52.5
2022-11-18T01:58:10.636Z,52.9
2022-11-18T01:59:13.045Z,53.3
2022-11-18T02:00:14.703Z,53.4
2022-11-18T02:01:16.837Z,53.2
2022-11-18T02:02:18.707Z,53.3
2022-11-18T02:06:41.614Z,54.2
2022-11-18T02:07:43.862Z,54.2
2022-11-18T02:08:45.470Z,54.3
2022-11-18T02:09:46.618Z,55
2022-11-18T02:10:47.573Z,55.6
2022-11-18T02:11:48.706Z,55.8
2022-11-18T02:12:50.573Z,55.8
2022-11-18T02:13:51.575Z,55.8
2022-11-18T02:14:53.956Z,55.6
2022-11-18T02:15:55.661Z,55.4
2022-11-18T02:16:57.716Z,55.2
2022-11-18T02:17:59.555Z,55.3
2022-11-18T02:19:00.526Z,55.5
2022-11-18T02:20:01.614Z,55.3
2022-11-18T02:21:02.716Z,55.3
2022-11-18T02:22:04.705Z,55.5
2022-11-18T02:23:06.814Z,55.7
2022-11-18T02:24:08.648Z,55.5
2022-11-18T02:25:10.717Z,55.2
2022-11-18T02:26:12.793Z,55
2022-11-18T02:27:14.854Z,54.6
2022-11-18T02:28:16.556Z,54.3
2022-11-18T02:29:18.015Z,53.9
2022-11-18T02:30:19.795Z,53.7
2022-11-18T02:31:21.694Z,53.9
2022-11-18T02:32:23.761Z,54
2022-11-18T02:33:25.714Z,54
2022-11-18T02:34:28.756Z,54.1
2022-11-18T02:35:30.642Z,53.9
2022-11-18T02:36:32.876Z,53.3
2022-11-18T02:37:34.854Z,53.5
2022-11-18T02:38:37.094Z,53.4
2022-11-18T02:39:38.734Z,53.1
2022-11-18T02:40:40.578Z,53.1
2022-11-18T02:41:41.594Z,53.2
2022-11-18T02:42:42.575Z,53.1
2022-11-18T02:43:44.553Z,53.3
2022-11-18T02:44:45.557Z,53.1
2022-11-18T02:45:46.653Z,53.3
2022-11-18T02:46:48.754Z,53.6
2022-11-18T02:47:50.754Z,54
2022-11-18T02:48:53.254Z,54.4
2022-11-18T02:49:56.174Z,54.6
2022-11-18T02:50:57.631Z,54.5
2022-11-18T02:51:58.715Z,54.7
2022-11-18T02:53:00.604Z,54.7
2022-11-18T02:54:01.674Z,54.3
2022-11-18T02:55:03.514Z,54.9
2022-11-18T02:56:04.537Z,54.6
2022-11-18T02:57:05.653Z,54.8
2022-11-18T02:58:07.774Z,54.8
2022-11-18T02:59:09.615Z,54.5
2022-11-18T03:00:10.997Z,54.3
2022-11-18T03:01:12.810Z,54.3
2022-11-18T03:02:14.616Z,54.4
2022-11-18T03:03:15.496Z,54.4
2022-11-18T03:04:16.633Z,54.3
2022-11-18T03:05:18.801Z,54.2
2022-11-18T03:06:20.854Z,54.2
2022-11-18T03:07:22.815Z,54.4
2022-11-18T03:08:24.861Z,54.7
2022-11-18T03:09:26.774Z,55.1
2022-11-18T03:10:28.634Z,54.9
2022-11-18T03:11:29.610Z,54.8
2022-11-18T03:12:30.634Z,54.8
2022-11-18T03:13:31.874Z,54.6
2022-11-18T03:14:33.754Z,54.6
2022-11-18T03:15:35.867Z,54.5
2022-11-18T03:16:38.348Z,54.3
2022-11-18T03:17:39.841Z,54.4
2022-11-18T03:18:42.090Z,54.8
2022-11-18T03:19:43.754Z,55.2
2022-11-18T03:20:45.593Z,55.5
2022-11-18T03:21:46.594Z,55.3
2022-11-18T03:22:48.034Z,55.2
2022-11-18T03:23:49.874Z,55.1
2022-11-18T03:24:51.713Z,55.1
2022-11-18T03:25:53.834Z,54.9
2022-11-18T03:26:55.781Z,54.5
2022-11-18T03:27:57.816Z,54.4
2022-11-18T03:28:59.836Z,54.5
2022-11-18T03:30:01.696Z,54.9
2022-11-18T03:31:03.794Z,55.3
2022-11-18T03:32:05.714Z,55.4
2022-11-18T03:33:08.260Z,55.5
2022-11-18T03:34:09.626Z,55.5
2022-11-18T03:35:10.754Z,55.5
2022-11-18T03:36:12.841Z,55.4
2022-11-18T03:37:14.635Z,55.4
2022-11-18T03:38:16.155Z,55.5
2022-11-18T03:39:17.929Z,55.7
2022-11-18T03:40:19.739Z,55.7
2022-11-18T03:41:21.774Z,55.5
2022-11-18T03:42:23.701Z,55.3
2022-11-18T03:43:26.514Z,55.1
2022-11-18T03:44:27.656Z,55.1
2022-11-18T03:45:29.674Z,55
2022-11-18T03:46:31.802Z,55
2022-11-18T03:47:33.775Z,55.3
2022-11-18T03:48:35.797Z,55.2
2022-11-18T03:49:37.854Z,55.2
2022-11-18T03:50:40.394Z,55.2
2022-11-18T03:51:41.614Z,54.7
2022-11-18T03:52:42.695Z,54.6
2022-11-18T03:53:45.439Z,54.5
2022-11-18T03:54:46.735Z,54.1
2022-11-18T03:55:48.694Z,54.2
2022-11-18T03:56:50.689Z,54.5
2022-11-18T03:57:52.778Z,54.7
2022-11-18T03:58:54.576Z,54.4
2022-11-18T03:59:55.714Z,54.2
2022-11-18T04:00:57.867Z,54.1
2022-11-18T04:01:59.770Z,54.4
2022-11-18T04:03:01.860Z,54.9
2022-11-18T04:04:03.696Z,55.1
2022-11-18T04:05:05.754Z,54.9
2022-11-18T04:06:07.766Z,54.7
2022-11-18T04:07:09.722Z,54.6
2022-11-18T04:08:11.594Z,54
2022-11-18T04:09:12.622Z,53.6
2022-11-18T04:10:14.262Z,53.9
2022-11-18T04:11:16.455Z,53.7
2022-11-18T04:12:18.034Z,53.4
2022-11-18T04:13:19.861Z,53.2
2022-11-18T04:14:21.821Z,53.3
2022-11-18T04:15:23.756Z,53.2
2022-11-18T04:16:26.074Z,53.2
2022-11-18T04:17:27.938Z,53.1
2022-11-18T04:18:29.694Z,53.2
2022-11-18T04:19:31.655Z,53
2022-11-18T04:20:32.715Z,52.9
2022-11-18T04:21:35.075Z,52.6
2022-11-18T04:22:36.878Z,52.3
2022-11-18T04:23:38.774Z,52.3
2022-11-18T04:24:40.734Z,52
2022-11-18T04:25:43.074Z,51.7
2022-11-18T04:26:45.074Z,51.7
2022-11-18T04:27:46.621Z,52
2022-11-18T04:28:47.659Z,52.1
2022-11-18T04:29:48.766Z,52.5
2022-11-18T04:30:51.055Z,52.7
2022-11-18T04:31:52.776Z,52.5
2022-11-18T04:32:54.635Z,52.7
2022-11-18T04:33:55.635Z,52.9
2022-11-18T04:34:57.495Z,53.1
2022-11-18T04:35:58.695Z,53.2
2022-11-18T04:37:00.646Z,53.4
2022-11-18T04:38:01.642Z,53.8
2022-11-18T04:39:02.608Z,54.1
2022-11-18T04:40:03.763Z,54.2
2022-11-18T04:41:05.834Z,54.4
2022-11-18T04:42:07.773Z,54.5
2022-11-18T04:43:09.834Z,54.6
2022-11-18T04:44:11.962Z,54.4
2022-11-18T04:45:13.734Z,54.4
2022-11-18T04:46:15.622Z,54.4
2022-11-18T04:47:16.774Z,54.1
2022-11-18T04:48:19.078Z,53.9
2022-11-18T04:49:20.732Z,54.1
2022-11-18T04:50:21.736Z,54.3
2022-11-18T04:51:23.913Z,54.4
2022-11-18T04:52:25.795Z,54.3
2022-11-18T04:53:27.874Z,54.2
2022-11-18T04:54:30.243Z,54.2
2022-11-18T04:55:31.958Z,54.4
2022-11-18T04:56:33.795Z,54.1
2022-11-18T04:57:35.877Z,54.1
2022-11-18T04:58:37.773Z,54
2022-11-18T04:59:39.984Z,54
2022-11-18T05:00:41.715Z,53.9
2022-11-18T05:01:43.754Z,53.7
2022-11-18T05:02:45.041Z,53.5
2022-11-18T05:03:50.489Z,53.2
2022-11-18T05:04:48.774Z,53
2022-11-18T05:05:50.874Z,52.9
2022-11-18T05:06:52.913Z,52.7
2022-11-18T05:07:55.083Z,52.4
2022-11-18T05:08:56.755Z,52.3
2022-11-18T05:09:58.834Z,52.3
2022-11-18T05:11:00.954Z,52.3
2022-11-18T05:12:02.867Z,52.6
2022-11-18T05:13:04.742Z,52.8
2022-11-18T05:14:06.694Z,53
2022-11-18T05:15:07.685Z,52.8
2022-11-18T05:16:08.794Z,52.6
2022-11-18T05:17:10.854Z,52.4
2022-11-18T05:18:13.536Z,52.1
2022-11-18T05:19:15.428Z,51.8
2022-11-18T05:20:16.674Z,51.7
2022-11-18T05:21:17.654Z,51.5
2022-11-18T05:22:18.591Z,51.5
2022-11-18T05:23:19.673Z,51.7
2022-11-18T05:24:20.655Z,51.6
2022-11-18T05:25:21.658Z,51.6
2022-11-18T05:26:22.674Z,51.6
2022-11-18T05:27:23.573Z,51.4
2022-11-18T05:28:25.734Z,51.3
2022-11-18T05:29:28.675Z,51.5
2022-11-18T05:30:29.668Z,51.5
2022-11-18T05:31:30.654Z,51.5
2022-11-18T05:32:31.694Z,51.6
2022-11-18T05:33:33.178Z,51.5
2022-11-18T05:34:35.313Z,51.6
2022-11-18T05:35:36.647Z,51.6
2022-11-18T05:36:37.716Z,51.9
2022-11-18T05:37:40.234Z,52.2
2022-11-18T05:38:42.387Z,52.2
2022-11-18T05:39:43.623Z,51.9
2022-11-18T05:40:45.115Z,52
2022-11-18T05:41:47.968Z,52.2
2022-11-18T05:42:49.716Z,52.1
2022-11-18T05:43:51.837Z,51.9
2022-11-18T05:44:58.020Z,51.5
2022-11-18T05:45:55.914Z,51.2
2022-11-18T05:46:57.905Z,51.2
2022-11-18T05:47:59.695Z,51.1
2022-11-18T05:49:01.075Z,50.7
2022-11-18T05:50:02.693Z,50.5
2022-11-18T05:51:03.834Z,50.4
2022-11-18T05:52:05.801Z,50.6
2022-11-18T05:53:07.913Z,50.6
2022-11-18T05:54:09.916Z,50.6
2022-11-18T05:55:11.782Z,50.8
2022-11-18T05:56:13.674Z,50.8
2022-11-18T05:57:15.835Z,50.6
2022-11-18T05:58:17.662Z,50.6
2022-11-18T05:59:18.901Z,50.9
2022-11-18T06:00:20.255Z,51
2022-11-18T06:01:22.242Z,51
2022-11-18T06:02:24.639Z,50.6
2022-11-18T06:03:30.369Z,50.5
2022-11-18T06:04:27.156Z,50.4
2022-11-18T06:05:29.195Z,50.2
2022-11-18T06:06:30.833Z,50.2
2022-11-18T06:07:32.978Z,50.2
2022-11-18T06:08:35.438Z,50.2
2022-11-18T06:09:36.754Z,50.1
2022-11-18T06:10:38.823Z,50.1
2022-11-18T06:11:40.815Z,49.9
2022-11-18T06:12:43.374Z,49.9
2022-11-18T06:13:45.763Z,49.9
2022-11-18T06:14:47.794Z,49.9
2022-11-18T06:15:49.794Z,49.8
2022-11-18T06:16:51.929Z,49.7
2022-11-18T06:17:53.815Z,49.6
2022-11-18T06:18:55.774Z,49.8
2022-11-18T06:19:58.116Z,49.9
2022-11-18T06:20:59.822Z,50.1
2022-11-18T06:22:01.849Z,50
2022-11-18T06:23:03.663Z,49.6
2022-11-18T06:24:04.791Z,49.9
2022-11-18T06:25:06.832Z,50
2022-11-18T06:26:08.759Z,50.3
2022-11-18T06:27:10.714Z,50.3
2022-11-18T06:28:12.794Z,50.4
2022-11-18T06:29:15.244Z,50.6
2022-11-18T06:30:18.416Z,50.6
2022-11-18T06:31:19.889Z,50.7
2022-11-18T06:32:22.822Z,50.4
2022-11-18T06:34:58.978Z,50.3
2022-11-18T06:36:01.223Z,50.3
2022-11-18T06:37:02.716Z,50
2022-11-18T06:38:03.814Z,50.1
2022-11-18T06:39:05.816Z,49.9
2022-11-18T06:40:07.723Z,49.9
2022-11-18T06:41:09.975Z,49.8
2022-11-18T06:42:11.922Z,49.6
2022-11-18T06:43:13.755Z,49.3
2022-11-18T06:44:15.654Z,49.2
2022-11-18T06:45:17.031Z,49.1
2022-11-18T06:46:20.097Z,49.3
2022-11-18T06:47:22.587Z,49.4
2022-11-18T06:48:23.862Z,49.4
2022-11-18T06:49:25.795Z,49.4
2022-11-18T06:50:28.155Z,49.4
2022-11-18T06:51:29.675Z,49.2
2022-11-18T06:52:30.871Z,48.8
2022-11-18T06:53:32.674Z,49.2
2022-11-18T06:54:33.713Z,49.4
2022-11-18T06:55:34.674Z,49.2
2022-11-18T06:56:35.755Z,49.1
2022-11-18T06:57:37.874Z,49.1
2022-11-18T06:58:39.713Z,49.2
2022-11-18T06:59:40.694Z,49
2022-11-18T07:00:41.799Z,48.8
2022-11-18T07:01:44.322Z,48.5
2022-11-18T07:02:45.714Z,48.2
2022-11-18T07:03:46.812Z,48
2022-11-18T07:04:48.657Z,47.8
2022-11-18T07:05:49.754Z,47.7
2022-11-18T07:06:51.736Z,47.9
2022-11-18T07:07:53.941Z,48.2
2022-11-18T07:08:55.664Z,48.3
2022-11-18T07:09:56.858Z,48.3
2022-11-18T07:10:59.174Z,48.8
2022-11-18T07:12:00.874Z,48.8
2022-11-18T07:13:03.015Z,48.9
2022-11-18T07:14:05.214Z,49.1
2022-11-18T07:15:07.716Z,49.3
2022-11-18T07:16:09.775Z,49.2
2022-11-18T07:17:12.255Z,49
2022-11-18T07:18:13.914Z,49
2022-11-18T07:19:16.058Z,48.7
2022-11-18T07:20:16.971Z,48.4
2022-11-18T07:21:19.776Z,48.7
2022-11-18T07:22:21.796Z,49.2
2022-11-18T07:23:24.895Z,49.3
2022-11-18T07:24:27.274Z,49.4
2022-11-18T07:25:28.816Z,49
2022-11-18T07:26:30.875Z,49.2
2022-11-18T07:27:32.855Z,49.9
2022-11-18T07:28:34.954Z,50.3
2022-11-18T07:29:36.996Z,50.1
2022-11-18T07:30:38.833Z,50.1
2022-11-18T07:31:40.920Z,50.2
2022-11-18T07:32:42.822Z,50.1
2022-11-18T07:33:45.042Z,49.9
2022-11-18T07:34:46.684Z,50
2022-11-18T07:35:47.713Z,50.1
2022-11-18T07:36:48.719Z,49.7
2022-11-18T07:37:49.833Z,50.1
2022-11-18T07:38:51.896Z,50.3
2022-11-18T07:39:53.837Z,50.4
2022-11-18T07:40:55.701Z,50.5
2022-11-18T07:41:56.797Z,50.5
2022-11-18T07:42:58.832Z,50.5
2022-11-18T07:44:02.057Z,50.7
2022-11-18T07:45:04.433Z,50.8
2022-11-18T07:46:05.734Z,50.8
2022-11-18T07:47:06.594Z,51
2022-11-18T07:48:07.736Z,50.8
2022-11-18T07:49:08.918Z,50.8
2022-11-18T07:50:11.021Z,50.7
2022-11-18T07:51:12.915Z,50.6
2022-11-18T07:52:14.821Z,50.3
2022-11-18T07:53:16.957Z,50
2022-11-18T07:54:18.916Z,49.9
2022-11-18T07:55:21.655Z,49.2
2022-11-18T07:56:22.838Z,49.6
2022-11-18T07:57:24.844Z,49.5
2022-11-18T07:58:26.823Z,49.6
2022-11-18T07:59:28.994Z,49.5
2022-11-18T08:00:30.817Z,50
2022-11-18T08:01:33.002Z,49.9
2022-11-18T08:02:34.974Z,50.3
2022-11-18T08:03:36.895Z,50.6
2022-11-18T08:04:39.093Z,50.7
2022-11-18T08:05:41.011Z,50.7
2022-11-18T08:06:42.897Z,51
2022-11-18T08:07:45.089Z,51.1
2022-11-18T08:08:46.755Z,50.8
2022-11-18T08:09:47.676Z,50.6
2022-11-18T08:10:48.723Z,50.2
2022-11-18T08:11:50.327Z,49.9
2022-11-18T08:12:51.873Z,49.3
2022-11-18T08:13:53.863Z,49.2
2022-11-18T08:14:56.033Z,49
2022-11-18T08:15:57.915Z,48.9
2022-11-18T08:16:59.683Z,48.6
2022-11-18T08:18:00.802Z,48.3
2022-11-18T08:19:02.755Z,48.8
2022-11-18T08:20:04.853Z,49
2022-11-18T08:21:06.944Z,49.3
2022-11-18T08:22:09.155Z,49.9
2022-11-18T08:23:12.138Z,49.9
2022-11-18T08:24:13.835Z,50
2022-11-18T08:25:15.906Z,49.5
2022-11-18T08:26:17.723Z,50
2022-11-18T08:27:18.718Z,50.2
2022-11-18T08:28:19.911Z,49.7
2022-11-18T08:29:25.174Z,49.7
2022-11-18T08:30:23.793Z,49.4
2022-11-18T08:31:25.693Z,49.1
2022-11-18T08:32:26.696Z,49.4
2022-11-18T08:33:27.739Z,49.6
2022-11-18T08:34:28.755Z,50.3
2022-11-18T08:35:29.733Z,50.6
2022-11-18T08:36:30.836Z,50.2
2022-11-18T08:37:32.074Z,50
2022-11-18T08:38:34.254Z,49.4
2022-11-18T08:39:35.953Z,48.6
2022-11-18T08:40:37.713Z,48.4
2022-11-18T08:41:38.696Z,48.6
2022-11-18T08:42:39.657Z,48.7
2022-11-18T08:43:40.793Z,48.3
2022-11-18T08:44:42.776Z,48.1
2022-11-18T08:45:45.432Z,48.1
2022-11-18T08:46:47.546Z,47.3
2022-11-18T08:47:48.894Z,47.1
2022-11-18T08:48:50.714Z,47.2
2022-11-18T08:49:51.842Z,47.2
2022-11-18T08:50:53.779Z,46.2
2022-11-18T08:51:55.859Z,46.1
2022-11-18T08:52:58.224Z,46.3
2022-11-18T08:54:00.493Z,45.8
2022-11-18T08:55:02.715Z,46.1
2022-11-18T08:56:04.130Z,45.9
2022-11-18T08:57:05.953Z,46
2022-11-18T08:58:08.122Z,46
2022-11-18T08:59:09.713Z,45.8
2022-11-18T09:00:10.893Z,45.4
2022-11-18T09:01:12.980Z,44.8
2022-11-18T09:02:14.974Z,44.3
2022-11-18T09:03:16.874Z,44.4
2022-11-18T09:04:18.975Z,44.6
2022-11-18T09:05:20.915Z,44.6
2022-11-18T09:06:23.078Z,44.8
2022-11-18T09:07:24.785Z,44.9
2022-11-18T09:08:25.955Z,44.8
2022-11-18T09:09:28.540Z,44.7
2022-11-18T09:10:30.033Z,44.4
2022-11-18T09:11:31.955Z,44.7
2022-11-18T09:12:33.736Z,44.9
2022-11-18T09:15:38.794Z,44.8
2022-11-18T09:16:39.928Z,44.9
2022-11-18T09:17:41.834Z,45.1
2022-11-18T09:18:43.874Z,45
2022-11-18T09:19:47.488Z,44.8
2022-11-18T09:20:48.296Z,44.6
2022-11-18T09:21:50.496Z,44.9
2022-11-18T09:22:51.769Z,45.3
2022-11-18T09:23:52.862Z,45.7
2022-11-18T09:24:54.776Z,45.7
2022-11-18T09:25:55.634Z,45.3
2022-11-18T09:26:56.837Z,45
2022-11-18T09:27:59.374Z,44.9
2022-11-18T09:29:00.816Z,44.9
2022-11-18T09:30:02.892Z,44.7
2022-11-18T09:31:04.915Z,44.9
2022-11-18T09:32:06.983Z,44.8
2022-11-18T09:33:08.869Z,44.6
2022-11-18T09:34:10.891Z,44.5
2022-11-18T09:35:13.475Z,44.6
2022-11-18T09:36:14.778Z,44.4
2022-11-18T09:37:15.975Z,43.7
2022-11-18T09:38:17.864Z,43.4
2022-11-18T09:39:19.989Z,43.9
2022-11-18T09:40:21.183Z,44.3
2022-11-18T09:41:23.252Z,44
2022-11-18T09:42:24.748Z,44
2022-11-18T09:43:29.307Z,44.4
2022-11-18T09:44:30.755Z,44.4
2022-11-18T09:45:31.742Z,44.7
2022-11-18T09:46:32.855Z,45.2
2022-11-18T09:47:34.836Z,45.1
2022-11-18T09:48:37.254Z,44.9
2022-11-18T09:49:38.914Z,45
2022-11-18T09:50:49.405Z,44.9
2022-11-18T09:51:42.933Z,44.7
2022-11-18T09:52:44.749Z,44.7
2022-11-18T09:53:45.977Z,44.7
2022-11-18T09:54:47.921Z,44.7
2022-11-18T09:55:49.864Z,44.5
2022-11-18T09:56:52.025Z,44.3
2022-11-18T09:57:53.968Z,43.8
2022-11-18T09:58:55.995Z,43.4
2022-11-18T09:59:59.197Z,43.1
2022-11-18T10:01:01.287Z,43.1
2022-11-18T10:02:03.410Z,43.2
2022-11-18T10:03:04.773Z,42.9
2022-11-18T10:04:05.794Z,43.2
2022-11-18T10:05:06.834Z,43.3
2022-11-18T10:06:09.354Z,43.2
2022-11-18T10:07:11.023Z,43.2
2022-11-18T10:08:12.915Z,43.3
2022-11-18T10:09:14.705Z,43.5
2022-11-18T10:10:15.796Z,43.6
2022-11-18T10:11:16.835Z,43.1
2022-11-18T10:12:19.442Z,42.8
2022-11-18T10:13:21.342Z,42.6
2022-11-18T10:14:23.145Z,42.5
2022-11-18T10:15:24.835Z,42.2
2022-11-18T10:16:28.303Z,42.1
2022-11-18T10:17:29.903Z,42.3
2022-11-18T10:18:58.239Z,42.5
2022-11-18T10:19:33.995Z,42.3
2022-11-18T10:20:36.129Z,42.3
2022-11-18T10:21:37.883Z,42.5
2022-11-18T10:22:39.778Z,42.8
2022-11-18T10:23:40.761Z,42.8
2022-11-18T10:24:42.297Z,43
2022-11-18T10:25:43.795Z,42.8
2022-11-18T10:26:44.815Z,42.6
2022-11-18T10:27:47.978Z,42.6
2022-11-18T10:28:50.542Z,42.9
2022-11-18T10:29:51.866Z,43.6
2022-11-18T10:30:55.285Z,44.4
2022-11-18T10:32:01.083Z,44.3
2022-11-18T10:32:58.879Z,44
2022-11-18T10:34:01.568Z,43.5
2022-11-18T10:35:03.405Z,43
2022-11-18T10:36:05.014Z,42.4
2022-11-18T10:37:06.989Z,42.2
2022-11-18T10:38:09.301Z,42
2022-11-18T10:39:10.900Z,41.8
2022-11-18T10:40:13.569Z,41.5
2022-11-18T10:41:14.883Z,40.9
2022-11-18T10:42:16.860Z,41.4
2022-11-18T10:43:18.915Z,41.4
2022-11-18T10:44:21.018Z,41.7
2022-11-18T10:45:22.796Z,42
2022-11-18T10:46:23.815Z,41.6
2022-11-18T10:47:24.755Z,41.5
2022-11-18T10:48:26.668Z,41.6
2022-11-18T10:49:27.817Z,41.6
2022-11-18T10:50:29.934Z,41.8
2022-11-18T10:51:31.817Z,41.7
2022-11-18T10:52:34.309Z,41
2022-11-18T10:53:36.452Z,40.9
2022-11-18T10:54:37.741Z,41
2022-11-18T10:55:38.755Z,40.7
2022-11-18T10:56:39.871Z,40.6
2022-11-18T10:57:41.994Z,40.5
2022-11-18T10:58:44.047Z,40.7
2022-11-18T10:59:45.866Z,41.2
2022-11-18T11:00:47.934Z,41.5
2022-11-18T11:01:49.919Z,41.4
2022-11-18T11:02:51.753Z,41.7
2022-11-18T11:03:53.245Z,41.7
2022-11-18T11:04:54.796Z,41.5
2022-11-18T11:05:55.834Z,41.3
2022-11-18T11:06:58.751Z,41.3
2022-11-18T11:08:14.555Z,41.4
2022-11-18T11:09:03.332Z,41.2
2022-11-18T11:10:05.110Z,41.1
2022-11-18T11:11:06.905Z,41.2
2022-11-18T11:12:08.803Z,40.9
2022-11-18T11:13:10.114Z,40.8
2022-11-18T11:14:11.764Z,41.1
2022-11-18T11:15:12.893Z,41.5
2022-11-18T11:16:14.812Z,41.7
2022-11-18T11:17:16.037Z,41.6
2022-11-18T11:18:17.974Z,41.5
2022-11-18T11:19:19.925Z,41.6
2022-11-18T11:20:22.124Z,41.7
2022-11-18T11:21:23.855Z,42.1
2022-11-18T11:22:26.422Z,42.6
2022-11-18T11:23:27.980Z,42.8
2022-11-18T11:24:29.939Z,42.7
2022-11-18T11:28:37.962Z,42.1
2022-11-18T11:29:41.347Z,42.5
2022-11-18T11:30:43.724Z,42.5
2022-11-18T11:31:44.751Z,42.4
2022-11-18T11:32:46.631Z,42.3
2022-11-18T11:33:47.683Z,42.3
2022-11-18T11:34:48.739Z,42.5
2022-11-18T11:35:50.154Z,42.6
2022-11-18T11:36:52.320Z,42.4
2022-11-18T11:37:54.178Z,42.7
2022-11-18T11:38:59.997Z,42.4
2022-11-18T11:39:57.962Z,42.4
2022-11-18T11:41:00.066Z,42.4
2022-11-18T11:42:02.684Z,42.6
2022-11-18T11:43:04.377Z,42.9
2022-11-18T11:44:05.871Z,43.1
2022-11-18T11:45:07.871Z,43
2022-11-18T11:46:10.201Z,42.7
2022-11-18T11:47:11.761Z,42.3
2022-11-18T11:48:12.765Z,42.2
2022-11-18T11:49:13.855Z,42
2022-11-18T11:50:16.014Z,42.1
2022-11-18T11:51:17.834Z,42.6
2022-11-18T11:52:18.943Z,42.7
2022-11-18T11:53:21.116Z,42.5
2022-11-18T11:54:23.143Z,42.9
2022-11-18T11:55:24.904Z,43.1
2022-11-18T11:56:27.975Z,43.2
2022-11-18T11:57:29.940Z,43.2
2022-11-18T11:58:31.929Z,43.3
2022-11-18T11:59:34.633Z,43.1
2022-11-18T12:00:37.100Z,43.2
2022-11-18T12:01:38.815Z,42.9
2022-11-18T12:02:39.834Z,42.5
2022-11-18T12:03:40.744Z,42.7
2022-11-18T12:04:41.863Z,42.7
2022-11-18T12:05:43.377Z,42.7
2022-11-18T12:06:45.054Z,42.8
2022-11-18T12:07:47.059Z,42.9
2022-11-18T12:08:48.917Z,43.1
2022-11-18T12:09:51.003Z,43.4
2022-11-18T12:10:54.276Z,43.4
2022-11-18T12:11:56.070Z,43.7
2022-11-18T12:12:57.944Z,43.9
2022-11-18T12:13:58.895Z,43.9
2022-11-18T12:15:00.901Z,43.8
2022-11-18T12:16:03.435Z,43.7
2022-11-18T12:17:04.802Z,43.3
2022-11-18T12:18:06.004Z,42.9
2022-11-18T12:19:08.359Z,42.9
2022-11-18T12:20:09.858Z,42.7
2022-11-18T12:21:10.785Z,42.8
2022-11-18T12:22:11.868Z,42.8
2022-11-18T12:23:13.057Z,43
2022-11-18T12:24:15.752Z,43.3
2022-11-18T12:25:16.928Z,43.1
2022-11-18T12:26:19.331Z,43
2022-11-18T12:27:21.486Z,43
2022-11-18T12:28:23.195Z,43
2022-11-18T12:29:25.045Z,43.1
2022-11-18T12:30:26.955Z,42.9
2022-11-18T12:31:28.799Z,42.6
2022-11-18T12:32:29.936Z,42.4
2022-11-18T12:33:32.230Z,42.1
2022-11-18T12:34:33.996Z,42.3
2022-11-18T12:35:36.107Z,42.3
2022-11-18T12:36:37.955Z,42.5
2022-11-18T12:37:39.862Z,43
2022-11-18T12:38:40.753Z,43.3
2022-11-18T12:39:41.786Z,43.8
2022-11-18T12:40:47.366Z,44.1
2022-11-18T12:41:44.815Z,44.1
2022-11-18T12:42:45.801Z,44
2022-11-18T12:43:46.810Z,43.8
2022-11-18T12:44:47.831Z,43.6
2022-11-18T12:45:48.862Z,43.2
2022-11-18T12:46:49.809Z,42.9
2022-11-18T12:47:51.205Z,42.6
2022-11-18T12:48:54.003Z,42.3
2022-11-18T12:49:56.596Z,42.1
2022-11-18T12:50:57.885Z,42
2022-11-18T12:51:59.982Z,42.1
2022-11-18T12:53:02.154Z,42.1
2022-11-18T12:54:03.983Z,42.2
2022-11-18T12:55:06.262Z,42.2
2022-11-18T12:56:07.811Z,42.4
2022-11-18T12:57:08.876Z,42.9
2022-11-18T12:58:09.752Z,43.5
2022-11-18T12:59:10.825Z,43.8
2022-11-18T13:00:11.914Z,43.7
2022-11-18T13:01:12.938Z,43.6
2022-11-18T13:02:14.183Z,43.6
2022-11-18T13:03:15.903Z,43.7
2022-11-18T13:04:18.036Z,43.7
2022-11-18T13:05:20.007Z,43.6
2022-11-18T13:06:21.974Z,43.9
2022-11-18T13:07:24.294Z,44
2022-11-18T13:08:25.951Z,43.8
2022-11-18T13:09:28.342Z,43.7
2022-11-18T13:10:30.086Z,44.2
2022-11-18T13:11:31.969Z,44.3
2022-11-18T13:12:34.174Z,44.4
2022-11-18T13:13:36.345Z,44.4
2022-11-18T13:14:39.573Z,44.5
2022-11-18T13:15:40.883Z,44.8
2022-11-18T13:16:42.143Z,45.2
2022-11-18T13:17:47.401Z,45.1
2022-11-18T13:18:49.522Z,44.5
2022-11-18T13:19:52.011Z,44.4
2022-11-18T13:20:53.890Z,44.1
2022-11-18T13:21:55.402Z,43.8
2022-11-18T13:22:57.003Z,43.7
2022-11-18T13:24:00.719Z,43.6
2022-11-18T13:25:01.062Z,43.6
2022-11-18T13:26:03.104Z,43.6
2022-11-18T13:27:05.003Z,43.7
2022-11-18T13:28:07.062Z,43.4
2022-11-18T13:29:09.037Z,43.3
2022-11-18T13:30:11.149Z,43.3
2022-11-18T13:31:13.127Z,43.1
2022-11-18T13:32:14.801Z,42.7
2022-11-18T13:33:16.163Z,41.9
2022-11-18T13:34:17.914Z,42.3
2022-11-18T13:35:19.431Z,42.4
2022-11-18T13:36:21.282Z,42.5
2022-11-18T13:37:24.244Z,42.8
2022-11-18T13:38:28.289Z,43
2022-11-18T13:39:27.922Z,43
2022-11-18T13:40:30.110Z,43.2
2022-11-18T13:41:31.963Z,43.1
2022-11-18T13:42:34.122Z,43
2022-11-18T13:43:37.049Z,43
2022-11-18T13:44:39.643Z,42.9
2022-11-18T13:45:40.863Z,43
2022-11-18T13:46:42.205Z,43
2022-11-18T13:47:44.267Z,43
2022-11-18T13:48:46.443Z,42.9
2022-11-18T13:49:50.468Z,42.8
2022-11-18T13:50:50.243Z,43
2022-11-18T13:51:52.949Z,43
2022-11-18T13:52:54.915Z,42.4
2022-11-18T13:53:57.045Z,42.2
2022-11-18T13:54:59.421Z,42
2022-11-18T13:56:01.143Z,41.4
2022-11-18T13:57:03.486Z,40.7
2022-11-18T13:58:05.065Z,40.1